Airfield :
LOGIN :

Register | Disclaimer

   EN    FR    IT 

 










Legend :    VFR   Marginal VFR   IFR   Intensive IFR   Very Intensive IFR
Visi :
Ceiling :
>= 8 km
>= 3000ft
5 to 8 km
1000 to 3000 ft
1500m to 5 km
500 to 1000 ft
800 to 1500m
200 to 500 ft
< 800m
< 200 ft
Symbols :   Thunderstorms  Fog  Heavy snow  Heavy precipitations  Wind > 20 kt
SIGMETs :     Misc.  Thunderstorms  Icing  Turbulence  Mountain Waves  Volcanic Ashes







- Airport Elevation : 297 ft
- IATA code : ODB


LEBA - Córdoba

CURRENT METAR :
  • 200700Z 24003KT 190V290 9999 SCT013 16/13 Q1013

EXPIRED METARs :
  • 200630Z 25003KT 200V300 9999 SCT013 16/12 Q1013
  • 200600Z 27004KT 230V290 9999 BKN013 15/12 Q1013
  • 200530Z AUTO 22003KT 170V260 9999 OVC012 15/12 Q1013
  • 200500Z AUTO VRB02KT 9999 OVC011 16/13 Q1012
  • 200430Z AUTO 25004KT 190V290 9999 OVC010 16/13 Q1012

TAF TAF LEBA
Valid from the 20 at 06:00 until the 20 at 15:00 UTC


200500Z 2006/2015 25005KT CAVOK
TEMPO 2006/2008 BKN012
No reported NOTAMs for that airfield.



MET'MAP, your aeronautical weather chart ! - Copyright ORBIFLY December 2007 - Disclaimer

ORBIFLY MET'MAP TEAM :

Programming & Development : Alexandra Zaïnal
Concept & Development : Baudouin d'Aumeries
Co-Development & Prog : Marc-Olivier Méhu
Technical & hardware support : Manuel Goepfert

Contact : metmap@orbifly.com




SOURCES & CREDITS :

   NOAA